Terminal Aerodrome Forecast
Issued by NWS

Home | Current Version | Previous Version | Text Only | Print | Product List | Glossary On
Versions: 1 2 3 4 5 6 7 8 9 10 11 12 13 14 15
215
FTPA31 PHFO 231131
TAFHKO
TAF
PHKO 231131Z 2312/2412 VRB06KT P6SM FEW045 BKN070
     FM232200 24009KT P6SM FEW045 BKN070
     FM240200 21009KT P6SM FEW025 BKN045
     FM240800 VRB06KT P6SM FEW045 BKN070=

USA.gov is the U.S. government's official web portal to all federal, state and local government web resources and services.